createdAt,value
2019-03-01T00:00:05.888Z,8.2
2019-03-01T00:15:05.928Z,8
2019-03-01T00:30:05.970Z,7.9
2019-03-01T00:45:05.997Z,7.6
2019-03-01T01:02:16.442Z,7.5
2019-03-01T01:32:18.650Z,7.7
2019-03-01T01:45:05.335Z,7.6
2019-03-01T02:00:05.355Z,7.6
2019-03-01T02:17:15.864Z,7.5
2019-03-01T02:45:05.482Z,7.6
2019-03-01T03:00:05.543Z,7.5
2019-03-01T03:15:05.590Z,7.5
2019-03-01T03:30:05.622Z,7.4
2019-03-01T03:47:16.441Z,7.4
2019-03-01T04:17:16.640Z,7.4
2019-03-01T04:30:05.833Z,7.4
2019-03-01T05:00:05.818Z,7.4
2019-03-01T05:17:17.016Z,7.1
2019-03-01T05:32:16.148Z,7
2019-03-01T05:47:15.158Z,6.9
2019-03-01T06:02:16.274Z,6.7
2019-03-01T06:15:06.149Z,6.8
2019-03-01T06:32:16.529Z,6.7
2019-03-01T06:47:19.662Z,6.7
2019-03-01T07:02:20.785Z,6.8
2019-03-01T07:15:10.831Z,7.1
2019-03-01T07:30:10.856Z,7
2019-03-01T07:45:10.854Z,6.8
2019-03-01T08:15:11.047Z,6.7
2019-03-01T08:30:11.474Z,6.6
2019-03-01T08:45:11.033Z,6.4
2019-03-01T09:00:11.114Z,6.4
2019-03-01T09:15:11.108Z,6.5
2019-03-01T09:32:21.715Z,6.6
2019-03-01T09:45:14.302Z,6.6
2019-03-01T10:00:11.259Z,6.6
2019-03-01T10:17:20.983Z,6.2
2019-03-01T10:30:11.333Z,6
2019-03-01T10:45:11.364Z,6.1
2019-03-01T11:00:11.434Z,6.1
2019-03-01T11:32:22.513Z,6.6
2019-03-01T11:45:11.458Z,6.7
2019-03-01T12:02:22.678Z,6.8
2019-03-01T12:17:21.868Z,6.9
2019-03-01T12:32:20.819Z,6.8
2019-03-01T12:45:11.672Z,6.9
2019-03-01T13:02:21.030Z,6.8
2019-03-01T13:15:14.583Z,6.8
2019-03-01T13:30:11.769Z,6.8
2019-03-01T13:47:22.329Z,6.8
2019-03-01T14:00:11.870Z,6.6
2019-03-01T14:17:24.483Z,6.6
2019-03-01T14:30:11.918Z,6.5
2019-03-01T14:47:22.732Z,6.3
2019-03-01T15:02:21.778Z,6.4
2019-03-01T15:15:12.024Z,6.3
2019-03-01T15:30:12.124Z,6.2
2019-03-01T15:45:12.133Z,6.1
2019-03-01T16:02:22.665Z,6
2019-03-01T16:30:18.222Z,6.1
2019-03-01T16:47:23.246Z,6.1
2019-03-01T17:02:22.609Z,6
2019-03-01T17:15:05.573Z,5.9
2019-03-01T17:32:16.604Z,5.9
2019-03-01T17:45:05.784Z,5.8
2019-03-01T18:00:05.633Z,5.8
2019-03-01T18:47:16.302Z,5.8
2019-03-01T19:00:05.775Z,5.7
2019-03-01T19:15:05.892Z,5.8
2019-03-01T19:45:06.362Z,5.8
2019-03-01T20:00:06.008Z,5.7
2019-03-01T20:15:09.692Z,5.6
2019-03-01T20:32:16.538Z,5.6
2019-03-01T20:47:18.346Z,5.6
2019-03-01T21:00:06.095Z,5.6
2019-03-01T21:45:06.270Z,5.5
2019-03-01T22:02:16.898Z,5.5
2019-03-01T22:15:06.386Z,5.5
2019-03-01T22:32:16.539Z,5.6
2019-03-01T22:47:15.577Z,5.5
2019-03-01T23:00:07.852Z,5.4
2019-03-01T23:15:08.196Z,5.4
2019-03-01T23:30:06.428Z,5.4
2019-03-01T23:45:06.521Z,5.4
